createdAt,value
2023-01-06T00:02:04.080Z,11.40
2023-01-06T00:04:43.276Z,11.40
2023-01-06T00:07:19.251Z,11.40
2023-01-06T00:09:50.321Z,11.40
2023-01-06T00:12:20.612Z,11.40
2023-01-06T00:14:52.166Z,11.40
2023-01-06T00:17:26.169Z,11.40
2023-01-06T00:19:56.600Z,11.40
2023-01-06T00:22:29.697Z,11.40
2023-01-06T00:25:01.242Z,11.40
2023-01-06T00:27:44.131Z,11.40
2023-01-06T00:30:26.100Z,11.40
2023-01-06T00:32:57.345Z,11.40
2023-01-06T00:35:28.271Z,11.30
2023-01-06T00:37:59.042Z,11.30
2023-01-06T00:40:29.610Z,11.30
2023-01-06T00:43:02.894Z,11.30
2023-01-06T00:45:34.315Z,11.30
2023-01-06T00:48:05.126Z,11.30
2023-01-06T00:50:35.958Z,11.30
2023-01-06T00:53:08.319Z,11.20
2023-01-06T00:55:38.794Z,11.20
2023-01-06T00:58:12.639Z,11.20
2023-01-06T01:00:49.956Z,11.20
2023-01-06T01:03:21.001Z,11.20
2023-01-06T01:05:54.950Z,11.20
2023-01-06T01:08:36.526Z,11.20
2023-01-06T01:11:33.128Z,11.20
2023-01-06T01:14:11.444Z,11.20
2023-01-06T01:16:53.402Z,11.20
2023-01-06T01:19:37.885Z,11.20
2023-01-06T01:22:11.812Z,11.20
2023-01-06T01:24:48.742Z,11.20
2023-01-06T01:27:26.146Z,11.20
2023-01-06T01:30:02.215Z,11.20
2023-01-06T01:32:48.706Z,11.20
2023-01-06T01:35:28.085Z,11.20
2023-01-06T01:38:01.950Z,11.20
2023-01-06T01:40:39.857Z,11.20
2023-01-06T01:43:34.245Z,11.20
2023-01-06T01:46:12.544Z,11.20
2023-01-06T01:48:56.926Z,11.20
2023-01-06T01:51:46.644Z,11.20
2023-01-06T01:54:38.593Z,11.20
2023-01-06T01:57:31.444Z,11.20
2023-01-06T02:00:19.988Z,11.20
2023-01-06T02:02:54.377Z,11.20
2023-01-06T02:05:32.435Z,11.20
2023-01-06T02:08:11.397Z,11.20
2023-01-06T02:10:56.231Z,11.20
2023-01-06T02:13:41.116Z,11.20
2023-01-06T02:16:28.046Z,11.20
2023-01-06T02:19:10.469Z,11.20
2023-01-06T02:22:06.156Z,11.20
2023-01-06T02:25:03.397Z,11.20
2023-01-06T02:28:15.715Z,11.20
2023-01-06T02:31:21.491Z,11.20
2023-01-06T02:34:05.631Z,11.20
2023-01-06T02:36:54.794Z,11.20
2023-01-06T02:39:41.607Z,11.20
2023-01-06T02:42:40.712Z,11.20
2023-01-06T02:45:25.524Z,11.20
2023-01-06T02:48:19.301Z,11.30
2023-01-06T02:51:10.609Z,11.20
2023-01-06T02:53:58.657Z,11.20
2023-01-06T02:56:43.449Z,11.20
2023-01-06T02:59:35.024Z,11.20
2023-01-06T03:02:13.318Z,11.20
2023-01-06T03:04:50.506Z,11.20
2023-01-06T03:07:26.081Z,11.20
2023-01-06T03:10:01.683Z,11.20
2023-01-06T03:12:45.425Z,11.20
2023-01-06T03:15:19.548Z,11.20
2023-01-06T03:17:54.058Z,11.20
2023-01-06T03:20:38.675Z,11.20
2023-01-06T03:23:10.592Z,11.20
2023-01-06T03:25:43.071Z,11.20
2023-01-06T03:28:18.115Z,11.20
2023-01-06T03:31:03.497Z,11.20
2023-01-06T03:33:49.116Z,11.20
2023-01-06T03:36:31.911Z,11.20
2023-01-06T03:39:11.528Z,11.30
2023-01-06T03:42:02.897Z,11.20
2023-01-06T03:44:56.814Z,11.30
2023-01-06T03:47:44.038Z,11.30
2023-01-06T03:50:29.208Z,11.30
2023-01-06T03:53:17.247Z,11.20
2023-01-06T03:56:00.284Z,11.30
2023-01-06T03:58:32.541Z,11.30
2023-01-06T04:01:04.522Z,11.30
2023-01-06T04:03:38.173Z,11.30
2023-01-06T04:06:08.302Z,11.30
2023-01-06T04:08:39.268Z,11.30
2023-01-06T04:11:09.321Z,11.30
2023-01-06T04:13:37.813Z,11.30
2023-01-06T04:16:08.920Z,11.30
2023-01-06T04:18:41.177Z,11.30
2023-01-06T04:21:14.134Z,11.30
2023-01-06T04:23:56.845Z,11.30
2023-01-06T04:26:31.056Z,11.30
2023-01-06T04:29:00.277Z,11.30
2023-01-06T04:31:34.053Z,11.30
2023-01-06T04:34:07.888Z,11.30
2023-01-06T04:36:38.151Z,11.30
2023-01-06T04:39:10.807Z,11.40
2023-01-06T04:41:44.577Z,11.30
2023-01-06T04:44:22.074Z,11.40
2023-01-06T04:46:54.300Z,11.40
2023-01-06T04:49:32.768Z,11.40
2023-01-06T04:52:06.147Z,11.40
2023-01-06T04:54:38.963Z,11.40
2023-01-06T04:57:10.953Z,11.40
2023-01-06T04:59:45.584Z,11.30
2023-01-06T05:02:19.696Z,11.40
2023-01-06T05:05:01.449Z,11.40
2023-01-06T05:07:38.718Z,11.40
2023-01-06T05:10:13.958Z,11.40
2023-01-06T05:12:46.338Z,11.30
2023-01-06T05:15:15.912Z,11.30
2023-01-06T05:17:46.274Z,11.30
2023-01-06T05:20:15.551Z,11.40
2023-01-06T05:22:48.415Z,11.30
2023-01-06T05:25:25.847Z,11.30
2023-01-06T05:27:57.916Z,11.40
2023-01-06T05:30:27.317Z,11.40
2023-01-06T05:32:57.680Z,11.40
2023-01-06T05:35:27.017Z,11.40
2023-01-06T05:37:58.761Z,11.40
2023-01-06T05:40:30.584Z,11.40
2023-01-06T05:43:00.475Z,11.40
2023-01-06T05:45:29.990Z,11.30
2023-01-06T05:48:00.443Z,11.40
2023-01-06T05:50:32.080Z,11.40
2023-01-06T05:53:06.477Z,11.40
2023-01-06T05:55:39.683Z,11.40
2023-01-06T05:58:13.566Z,11.30
2023-01-06T06:00:48.040Z,11.30
2023-01-06T06:03:20.713Z,11.40
2023-01-06T06:05:51.210Z,11.30
2023-01-06T06:08:29.658Z,11.30
2023-01-06T06:11:08.040Z,11.30
2023-01-06T06:13:42.124Z,11.30
2023-01-06T06:16:20.109Z,11.30
2023-01-06T06:18:53.931Z,11.30
2023-01-06T06:21:27.974Z,11.20
2023-01-06T06:23:58.611Z,11.20
2023-01-06T06:26:30.660Z,11.20
2023-01-06T06:29:00.128Z,11.20
2023-01-06T06:31:31.333Z,11.20
2023-01-06T06:34:02.300Z,11.20
2023-01-06T06:36:33.064Z,11.20
2023-01-06T06:39:02.689Z,11.20
2023-01-06T06:41:35.759Z,11.20
2023-01-06T06:44:11.334Z,11.20
2023-01-06T06:46:40.992Z,11.10
2023-01-06T06:49:10.415Z,11.10
2023-01-06T06:51:45.096Z,11.10
2023-01-06T06:54:18.399Z,11.20
2023-01-06T06:56:53.516Z,11.20
2023-01-06T06:59:28.894Z,11.20
2023-01-06T07:02:02.283Z,11.20
2023-01-06T07:04:31.329Z,11.20
2023-01-06T07:07:01.128Z,11.20
2023-01-06T07:09:35.382Z,11.20
2023-01-06T07:12:13.775Z,11.20
2023-01-06T07:14:43.903Z,11.20
2023-01-06T07:17:12.981Z,11.20
2023-01-06T07:19:42.173Z,11.20
2023-01-06T07:22:14.598Z,11.20
2023-01-06T07:24:46.740Z,11.30
2023-01-06T07:27:18.960Z,11.20
2023-01-06T07:29:47.909Z,11.20
2023-01-06T07:32:16.666Z,11.20
2023-01-06T07:34:51.699Z,11.30
2023-01-06T07:37:24.915Z,11.30
2023-01-06T07:39:55.924Z,11.30
2023-01-06T07:42:30.393Z,11.30
2023-01-06T07:45:00.443Z,11.30
2023-01-06T07:47:29.609Z,11.30
2023-01-06T07:49:58.479Z,11.30
2023-01-06T07:52:27.575Z,11.30
2023-01-06T07:54:59.439Z,11.30
2023-01-06T07:57:30.787Z,11.30
2023-01-06T07:59:59.637Z,11.30
2023-01-06T08:02:28.997Z,11.30
2023-01-06T08:04:59.484Z,11.40
2023-01-06T08:07:29.103Z,11.40
2023-01-06T08:09:58.130Z,11.30
2023-01-06T08:12:28.898Z,11.30
2023-01-06T08:14:58.159Z,11.20
2023-01-06T08:17:27.327Z,11.30
2023-01-06T08:19:56.285Z,11.30
2023-01-06T08:22:25.198Z,11.30
2023-01-06T08:24:54.374Z,11.40
2023-01-06T08:27:23.455Z,11.40
2023-01-06T08:30:03.620Z,11.40
2023-01-06T08:32:32.644Z,11.40
2023-01-06T08:35:01.640Z,11.40
2023-01-06T08:37:31.196Z,11.40
2023-01-06T08:40:00.390Z,11.40
2023-01-06T08:42:30.552Z,11.40
2023-01-06T08:44:59.878Z,11.40
2023-01-06T08:47:30.562Z,11.40
2023-01-06T08:49:59.595Z,11.40
2023-01-06T08:52:28.404Z,11.40
2023-01-06T08:54:57.430Z,11.50
2023-01-06T08:57:26.592Z,11.50
2023-01-06T08:59:55.443Z,11.50
2023-01-06T09:02:27.998Z,11.40
2023-01-06T09:04:58.529Z,11.30
2023-01-06T09:07:27.540Z,11.20
2023-01-06T09:09:56.947Z,11.20
2023-01-06T09:12:25.842Z,11.10
2023-01-06T09:14:54.938Z,11.00
2023-01-06T09:17:24.071Z,11.00
2023-01-06T09:19:53.193Z,11.00
2023-01-06T09:22:23.953Z,11.00
2023-01-06T09:24:53.155Z,11.00
2023-01-06T09:27:22.877Z,11.00
2023-01-06T09:29:52.726Z,10.80
2023-01-06T09:32:21.886Z,10.80
2023-01-06T09:34:50.929Z,10.80
2023-01-06T09:37:19.780Z,10.70
2023-01-06T09:39:50.998Z,10.70
2023-01-06T09:42:42.942Z,10.70
2023-01-06T09:45:17.894Z,10.70
2023-01-06T09:47:51.157Z,10.80
2023-01-06T09:50:30.330Z,10.80
2023-01-06T09:53:04.105Z,10.80
2023-01-06T09:55:38.133Z,10.80
2023-01-06T09:58:13.265Z,10.80
2023-01-06T10:00:44.855Z,10.90
2023-01-06T10:03:16.623Z,10.90
2023-01-06T10:06:01.277Z,10.90
2023-01-06T10:08:41.789Z,10.90
2023-01-06T10:11:16.798Z,11.00
2023-01-06T10:14:08.411Z,11.00
2023-01-06T10:16:51.442Z,11.00
2023-01-06T10:19:30.599Z,11.10
2023-01-06T10:22:08.577Z,11.20
2023-01-06T10:24:56.640Z,11.20
2023-01-06T10:27:42.189Z,11.20
2023-01-06T10:30:20.721Z,11.20
2023-01-06T10:32:51.993Z,11.30
2023-01-06T10:35:24.461Z,11.30
2023-01-06T10:37:55.601Z,11.30
2023-01-06T10:40:28.905Z,11.30
2023-01-06T10:43:04.157Z,11.40
2023-01-06T10:45:37.013Z,11.50
2023-01-06T10:48:08.567Z,11.50
2023-01-06T10:50:37.872Z,11.50
2023-01-06T10:53:07.410Z,11.50
2023-01-06T10:55:41.347Z,11.60
2023-01-06T10:58:32.721Z,11.60
2023-01-06T11:01:10.351Z,11.70
2023-01-06T11:03:43.294Z,11.80
2023-01-06T11:06:20.195Z,11.90
2023-01-06T11:08:51.458Z,12.00
2023-01-06T11:11:29.448Z,12.10
2023-01-06T11:14:05.013Z,12.20
2023-01-06T11:16:37.580Z,12.30
2023-01-06T11:19:08.682Z,12.40
2023-01-06T11:21:42.739Z,12.40
2023-01-06T11:24:18.391Z,12.50
2023-01-06T11:26:52.577Z,12.50
2023-01-06T11:29:28.728Z,12.60
2023-01-06T11:31:59.540Z,12.70
2023-01-06T11:34:30.353Z,12.70
2023-01-06T11:37:00.423Z,12.70
2023-01-06T11:39:33.899Z,12.90
2023-01-06T11:42:12.888Z,13.10
2023-01-06T11:44:44.489Z,13.50
2023-01-06T11:47:43.883Z,13.90
2023-01-06T11:50:24.349Z,13.80
2023-01-06T11:53:04.308Z,13.50
2023-01-06T11:55:34.097Z,13.50
2023-01-06T11:58:11.367Z,13.60
2023-01-06T12:00:52.170Z,13.90
2023-01-06T12:03:32.179Z,14.40
2023-01-06T12:06:08.696Z,14.30
2023-01-06T12:08:47.473Z,14.00
2023-01-06T12:11:28.413Z,13.80
2023-01-06T12:14:13.288Z,13.70
2023-01-06T12:16:59.928Z,13.60
2023-01-06T12:19:35.178Z,13.60
2023-01-06T12:22:06.574Z,13.50
2023-01-06T12:24:39.206Z,13.70
2023-01-06T12:27:18.429Z,14.00
2023-01-06T12:29:50.036Z,14.20
2023-01-06T12:32:30.089Z,14.20
2023-01-06T12:35:04.555Z,14.30
2023-01-06T12:37:40.964Z,15.10
2023-01-06T12:40:17.688Z,16.40
2023-01-06T12:42:54.768Z,17.00
2023-01-06T12:45:34.337Z,17.10
2023-01-06T12:48:16.843Z,17.30
2023-01-06T12:50:52.192Z,17.00
2023-01-06T12:57:55.887Z,15.30
2023-01-06T13:00:50.955Z,16.90
2023-01-06T13:16:08.199Z,15.00
2023-01-06T14:04:36.248Z,12.60
2023-01-06T14:18:54.561Z,11.60
2023-01-06T14:21:37.055Z,11.60
2023-01-06T14:24:08.288Z,11.50
2023-01-06T14:26:58.762Z,11.50
2023-01-06T14:30:21.165Z,11.40
2023-01-06T14:33:35.253Z,11.40
2023-01-06T14:36:18.452Z,11.50
2023-01-06T14:38:50.074Z,11.50
2023-01-06T14:41:33.862Z,11.60
2023-01-06T14:44:14.174Z,11.60
2023-01-06T14:54:55.322Z,11.40
2023-01-06T14:57:27.749Z,11.40
2023-01-06T15:00:20.911Z,11.50
2023-01-06T15:51:50.058Z,11.20
2023-01-06T15:58:12.375Z,11.20
2023-01-06T16:00:50.890Z,11.20
2023-01-06T16:03:23.418Z,11.10
2023-01-06T16:06:11.771Z,11.10
2023-01-06T16:09:36.499Z,11.10
2023-01-06T16:12:26.906Z,11.00
2023-01-06T16:15:12.346Z,11.00
2023-01-06T16:18:00.434Z,11.00
2023-01-06T16:21:14.039Z,11.00
2023-01-06T16:23:52.811Z,11.00
2023-01-06T16:26:33.609Z,11.10
2023-01-06T16:29:30.363Z,11.10
2023-01-06T16:32:29.010Z,11.10
2023-01-06T16:35:05.712Z,11.10
2023-01-06T16:37:40.274Z,11.00
2023-01-06T17:16:51.235Z,11.00
2023-01-06T19:37:58.185Z,11.30
2023-01-06T22:05:15.173Z,11.00
2023-01-06T22:11:16.064Z,11.00
2023-01-06T22:13:45.264Z,11.00
2023-01-06T22:16:14.967Z,11.00
2023-01-06T22:18:44.013Z,11.00
2023-01-06T22:21:14.610Z,11.00
2023-01-06T22:23:44.755Z,11.00
2023-01-06T22:26:14.220Z,11.00
2023-01-06T22:28:43.011Z,11.00
2023-01-06T22:31:12.267Z,11.00
2023-01-06T22:33:41.301Z,11.00
2023-01-06T22:36:10.909Z,11.10
2023-01-06T22:38:41.072Z,11.10
2023-01-06T22:41:10.395Z,11.10
2023-01-06T22:43:39.334Z,11.10
2023-01-06T22:46:08.144Z,11.20
2023-01-06T22:48:37.005Z,11.20
2023-01-06T22:51:07.564Z,11.20
2023-01-06T22:53:36.941Z,11.20
2023-01-06T22:56:09.583Z,11.20
2023-01-06T22:58:39.993Z,11.20
2023-01-06T23:01:10.881Z,11.20
2023-01-06T23:03:39.554Z,11.20
2023-01-06T23:06:10.430Z,11.20
2023-01-06T23:08:51.104Z,11.30
2023-01-06T23:11:29.928Z,11.30
2023-01-06T23:14:00.076Z,11.40
2023-01-06T23:16:30.379Z,11.40
2023-01-06T23:18:59.505Z,11.40
2023-01-06T23:21:30.217Z,11.40
2023-01-06T23:23:59.153Z,11.30
2023-01-06T23:26:30.960Z,11.20
2023-01-06T23:28:59.964Z,11.10
2023-01-06T23:31:31.213Z,11.10
2023-01-06T23:34:04.166Z,11.10
2023-01-06T23:36:33.300Z,11.00
2023-01-06T23:39:03.674Z,10.90
2023-01-06T23:41:35.138Z,10.90
2023-01-06T23:44:04.545Z,10.80
2023-01-06T23:46:35.592Z,10.80
2023-01-06T23:49:05.219Z,10.80
2023-01-06T23:51:34.414Z,10.70
2023-01-06T23:54:04.718Z,10.80
2023-01-06T23:56:37.105Z,10.80
2023-01-06T23:59:07.840Z,10.90
